createdAt,value
2018-12-12T00:00:29.183Z,16.10
2018-12-12T00:01:29.104Z,19.90
2018-12-12T00:02:29.099Z,18.30
2018-12-12T00:03:28.980Z,24.50
2018-12-12T00:04:28.977Z,22.00
2018-12-12T00:05:28.870Z,17.20
2018-12-12T00:06:28.857Z,17.10
2018-12-12T00:07:28.864Z,19.90
2018-12-12T00:08:28.737Z,21.40
2018-12-12T00:09:28.737Z,20.90
2018-12-12T00:10:28.617Z,19.70
2018-12-12T00:11:28.623Z,21.00
2018-12-12T00:12:28.502Z,21.30
2018-12-12T00:13:28.495Z,23.80
2018-12-12T00:14:28.498Z,19.50
2018-12-12T00:15:28.377Z,21.10
2018-12-12T00:16:28.381Z,23.40
2018-12-12T00:17:28.262Z,19.70
2018-12-12T00:18:28.261Z,24.90
2018-12-12T00:19:28.218Z,22.40
2018-12-12T00:20:28.134Z,23.50
2018-12-12T00:21:28.133Z,23.10
2018-12-12T00:22:28.013Z,26.60
2018-12-12T00:23:28.016Z,26.00
2018-12-12T00:24:27.894Z,23.40
2018-12-12T00:25:27.897Z,28.80
2018-12-12T00:26:27.893Z,26.70
2018-12-12T00:27:27.773Z,26.20
2018-12-12T00:28:27.772Z,23.80
2018-12-12T00:29:27.653Z,26.70
2018-12-12T00:30:27.657Z,20.60
2018-12-12T00:31:31.031Z,22.30
2018-12-12T00:32:27.531Z,22.30
2018-12-12T00:33:27.533Z,26.30
2018-12-12T00:34:27.415Z,17.70
2018-12-12T00:35:27.413Z,22.50
2018-12-12T00:36:27.301Z,20.50
2018-12-12T00:37:27.303Z,18.90
2018-12-12T00:38:27.259Z,20.00
2018-12-12T00:39:27.181Z,22.20
2018-12-12T00:40:27.177Z,23.20
2018-12-12T00:41:27.050Z,23.80
2018-12-12T00:42:27.049Z,25.10
2018-12-12T00:43:26.932Z,19.50
2018-12-12T00:44:26.931Z,22.40
2018-12-12T00:45:26.937Z,18.30
2018-12-12T00:46:26.808Z,21.10
2018-12-12T00:47:26.816Z,21.50
2018-12-12T00:48:26.689Z,18.00
2018-12-12T00:49:26.701Z,20.70
2018-12-12T00:50:26.572Z,20.70
2018-12-12T00:51:26.569Z,21.80
2018-12-12T00:52:26.573Z,21.20
2018-12-12T00:53:26.448Z,23.70
2018-12-12T00:54:26.458Z,22.10
2018-12-12T00:55:26.329Z,23.40
2018-12-12T00:56:26.333Z,20.10
2018-12-12T00:57:26.208Z,21.00
2018-12-12T00:58:26.206Z,25.70
2018-12-12T00:59:26.206Z,20.50
2018-12-12T01:00:26.093Z,19.20
2018-12-12T01:01:26.092Z,19.40
2018-12-12T01:02:25.966Z,24.70
2018-12-12T01:03:25.976Z,23.90
2018-12-12T01:04:25.975Z,25.20
2018-12-12T01:05:25.850Z,22.50
2018-12-12T01:06:25.844Z,20.40
2018-12-12T01:07:26.254Z,24.30
2018-12-12T01:08:25.723Z,24.50
2018-12-12T01:09:25.610Z,21.30
2018-12-12T01:10:25.604Z,21.40
2018-12-12T01:11:25.610Z,23.70
2018-12-12T01:12:25.489Z,19.40
2018-12-12T01:13:25.484Z,23.80
2018-12-12T01:14:25.366Z,19.00
2018-12-12T01:15:25.370Z,22.70
2018-12-12T01:16:25.254Z,23.90
2018-12-12T01:17:25.241Z,23.30
2018-12-12T01:18:25.248Z,25.00
2018-12-12T01:19:25.123Z,22.70
2018-12-12T01:20:25.123Z,22.10
2018-12-12T01:21:25.005Z,21.80
2018-12-12T01:22:25.008Z,22.00
2018-12-12T01:23:24.966Z,18.60
2018-12-12T01:24:24.891Z,23.00
2018-12-12T01:25:24.881Z,21.40
2018-12-12T01:26:24.762Z,21.00
2018-12-12T01:27:24.761Z,21.90
2018-12-12T01:28:24.647Z,19.70
2018-12-12T01:29:24.644Z,20.40
2018-12-12T01:30:24.645Z,15.90
2018-12-12T01:31:24.520Z,22.80
2018-12-12T01:32:24.521Z,17.60
2018-12-12T01:33:24.408Z,19.40
2018-12-12T01:34:24.406Z,21.20
2018-12-12T01:35:24.280Z,18.20
2018-12-12T01:36:24.286Z,21.50
2018-12-12T01:37:24.283Z,21.60
2018-12-12T01:38:24.159Z,20.00
2018-12-12T01:39:24.161Z,22.50
2018-12-12T01:40:24.050Z,20.20
2018-12-12T01:41:24.037Z,25.10
2018-12-12T01:42:24.043Z,20.30
2018-12-12T01:43:23.925Z,18.30
2018-12-12T01:44:23.923Z,22.10
2018-12-12T01:45:23.799Z,22.80
2018-12-12T01:46:23.796Z,22.10
2018-12-12T01:47:23.680Z,21.30
2018-12-12T01:48:23.676Z,21.50
2018-12-12T01:49:23.675Z,24.20
2018-12-12T01:50:23.557Z,23.60
2018-12-12T01:51:23.563Z,19.90
2018-12-12T01:52:23.648Z,29.00
2018-12-12T01:53:23.529Z,22.50
2018-12-12T01:54:24.174Z,22.10
2018-12-12T01:55:23.399Z,24.00
2018-12-12T01:56:23.558Z,18.40
2018-12-12T01:57:23.675Z,21.90
2018-12-12T01:58:23.286Z,23.40
2018-12-12T01:59:23.075Z,23.00
2018-12-12T02:00:23.079Z,20.90
2018-12-12T02:01:23.037Z,23.20
2018-12-12T02:02:22.954Z,22.80
2018-12-12T02:03:22.958Z,16.20
2018-12-12T02:04:22.834Z,23.70
2018-12-12T02:05:22.832Z,19.80
2018-12-12T02:06:22.714Z,19.90
2018-12-12T02:07:22.714Z,26.10
2018-12-12T02:08:22.719Z,26.10
2018-12-12T02:09:22.592Z,20.20
2018-12-12T02:10:22.592Z,20.10
2018-12-12T02:11:22.473Z,27.00
2018-12-12T02:12:22.472Z,19.30
2018-12-12T02:13:22.362Z,19.00
2018-12-12T02:14:22.351Z,20.10
2018-12-12T02:15:22.351Z,20.00
2018-12-12T02:16:22.233Z,18.10
2018-12-12T02:17:22.230Z,15.90
2018-12-12T02:18:22.111Z,21.30
2018-12-12T02:19:22.111Z,20.90
2018-12-12T02:20:22.111Z,23.40
2018-12-12T02:21:21.991Z,22.50
2018-12-12T02:22:21.993Z,19.90
2018-12-12T02:23:21.869Z,22.50
2018-12-12T02:24:21.868Z,22.10
2018-12-12T02:25:21.750Z,21.60
2018-12-12T02:26:21.750Z,21.40
2018-12-12T02:27:21.752Z,19.60
2018-12-12T02:28:21.627Z,20.90
2018-12-12T02:29:21.630Z,21.90
2018-12-12T02:30:21.508Z,24.70
2018-12-12T02:31:21.507Z,21.40
2018-12-12T02:32:21.512Z,22.90
2018-12-12T02:33:21.388Z,21.40
2018-12-12T02:34:21.391Z,19.30
2018-12-12T02:35:21.282Z,19.80
2018-12-12T02:36:21.268Z,20.20
2018-12-12T02:37:21.147Z,22.50
2018-12-12T02:38:21.148Z,20.80
2018-12-12T02:39:21.149Z,21.70
2018-12-12T02:40:21.027Z,22.00
2018-12-12T02:41:21.026Z,24.60
2018-12-12T02:42:20.908Z,19.40
2018-12-12T02:43:20.909Z,21.20
2018-12-12T02:44:20.905Z,21.00
2018-12-12T02:45:20.789Z,21.70
2018-12-12T02:46:20.788Z,21.20
2018-12-12T02:47:20.671Z,20.90
2018-12-12T02:48:20.667Z,19.80
2018-12-12T02:49:20.546Z,22.70
2018-12-12T02:50:20.542Z,22.80
2018-12-12T02:51:20.544Z,21.40
2018-12-12T02:52:20.424Z,19.80
2018-12-12T02:53:20.423Z,21.40
2018-12-12T02:54:20.305Z,23.30
2018-12-12T02:55:20.386Z,26.80
2018-12-12T02:56:20.298Z,26.70
2018-12-12T02:57:20.184Z,21.60
2018-12-12T02:58:20.183Z,27.50
2018-12-12T02:59:20.063Z,23.30
2018-12-12T03:00:20.064Z,21.90
2018-12-12T03:01:19.946Z,26.20
2018-12-12T03:02:19.941Z,26.20
2018-12-12T03:03:19.941Z,27.80
2018-12-12T03:04:19.825Z,31.40
2018-12-12T03:05:19.820Z,28.00
2018-12-12T03:06:19.700Z,23.90
2018-12-12T03:07:19.704Z,21.90
2018-12-12T03:08:19.662Z,25.50
2018-12-12T03:09:19.582Z,22.70
2018-12-12T03:10:19.588Z,24.80
2018-12-12T03:11:19.471Z,25.80
2018-12-12T03:12:19.459Z,26.60
2018-12-12T03:13:19.345Z,25.70
2018-12-12T03:14:19.339Z,28.30
2018-12-12T03:15:19.339Z,24.40
2018-12-12T03:16:19.218Z,24.20
2018-12-12T03:17:19.221Z,24.70
2018-12-12T03:18:19.100Z,26.40
2018-12-12T03:19:19.106Z,24.80
2018-12-12T03:20:19.061Z,27.00
2018-12-12T03:21:18.978Z,28.20
2018-12-12T03:22:18.977Z,32.90
2018-12-12T03:23:18.868Z,28.70
2018-12-12T03:24:18.862Z,28.70
2018-12-12T03:25:18.743Z,26.60
2018-12-12T03:26:18.736Z,28.20
2018-12-12T03:27:18.739Z,28.90
2018-12-12T03:28:18.617Z,23.80
2018-12-12T03:29:18.615Z,32.20
2018-12-12T03:30:18.505Z,28.70
2018-12-12T03:31:18.495Z,30.10
2018-12-12T03:32:18.471Z,26.10
2018-12-12T03:33:18.377Z,34.60
2018-12-12T03:34:18.372Z,27.00
2018-12-12T03:35:18.253Z,32.60
2018-12-12T03:36:18.258Z,29.40
2018-12-12T03:37:18.133Z,30.70
2018-12-12T03:38:18.134Z,29.10
2018-12-12T03:39:18.146Z,35.30
2018-12-12T03:40:18.021Z,27.40
2018-12-12T03:41:18.020Z,33.60
2018-12-12T03:42:17.898Z,34.60
2018-12-12T03:43:17.900Z,31.50
2018-12-12T03:44:17.856Z,31.30
2018-12-12T03:45:17.784Z,28.70
2018-12-12T03:46:17.778Z,30.60
2018-12-12T03:47:17.661Z,31.10
2018-12-12T03:48:17.652Z,27.00
2018-12-12T03:49:17.614Z,27.50
2018-12-12T03:50:17.530Z,33.10
2018-12-12T03:51:17.538Z,34.00
2018-12-12T03:52:17.419Z,32.60
2018-12-12T03:53:17.411Z,33.00
2018-12-12T03:54:17.296Z,28.20
2018-12-12T03:55:17.290Z,38.70
2018-12-12T03:56:17.294Z,24.80
2018-12-12T03:57:17.179Z,33.90
2018-12-12T03:58:17.172Z,34.10
2018-12-12T03:59:17.049Z,33.80
2018-12-12T04:00:17.050Z,33.10
2018-12-12T04:01:16.929Z,34.20
2018-12-12T04:02:16.927Z,29.40
2018-12-12T04:03:16.941Z,35.00
2018-12-12T04:04:16.814Z,28.30
2018-12-12T04:05:16.810Z,29.60
2018-12-12T04:06:16.806Z,29.90
2018-12-12T04:07:16.810Z,32.00
2018-12-12T04:08:16.703Z,30.30
2018-12-12T04:09:16.671Z,31.70
2018-12-12T04:10:16.675Z,35.60
2018-12-12T04:11:16.446Z,28.80
2018-12-12T04:12:16.445Z,35.20
2018-12-12T04:13:16.327Z,31.70
2018-12-12T04:14:16.328Z,33.10
2018-12-12T04:15:16.325Z,39.20
2018-12-12T04:16:16.204Z,40.10
2018-12-12T04:17:16.206Z,47.70
2018-12-12T04:18:16.083Z,40.30
2018-12-12T04:19:16.085Z,35.70
2018-12-12T04:20:16.080Z,40.80
2018-12-12T04:21:15.962Z,35.10
2018-12-12T04:22:15.968Z,41.60
2018-12-12T04:23:15.847Z,38.90
2018-12-12T04:24:15.849Z,61.90
2018-12-12T04:25:15.731Z,42.70
2018-12-12T04:26:15.729Z,34.10
2018-12-12T04:27:15.722Z,28.80
2018-12-12T04:28:15.604Z,33.50
2018-12-12T04:29:15.656Z,29.00
2018-12-12T04:30:15.483Z,34.60
2018-12-12T04:31:15.487Z,31.90
2018-12-12T04:32:15.476Z,29.70
2018-12-12T04:33:15.363Z,37.70
2018-12-12T04:34:15.362Z,35.60
2018-12-12T04:35:15.249Z,35.30
2018-12-12T04:36:15.248Z,34.80
2018-12-12T04:37:15.120Z,33.80
2018-12-12T04:38:15.125Z,30.60
2018-12-12T04:39:15.125Z,30.50
2018-12-12T04:40:15.003Z,36.30
2018-12-12T04:41:15.003Z,37.30
2018-12-12T04:42:14.881Z,36.70
2018-12-12T04:43:14.878Z,36.20
2018-12-12T04:44:14.841Z,40.10
2018-12-12T04:45:14.766Z,34.20
2018-12-12T04:46:14.757Z,32.10
2018-12-12T04:47:14.640Z,46.20
2018-12-12T04:48:14.639Z,34.10
2018-12-12T04:49:14.517Z,45.10
2018-12-12T04:50:14.516Z,44.30
2018-12-12T04:51:14.518Z,43.80
2018-12-12T04:52:14.398Z,41.60
2018-12-12T04:53:14.395Z,43.50
2018-12-12T04:54:14.282Z,48.10
2018-12-12T04:55:14.282Z,42.70
2018-12-12T04:56:14.156Z,40.70
2018-12-12T04:57:14.162Z,37.80
2018-12-12T04:58:14.156Z,43.50
2018-12-12T04:59:14.035Z,45.00
2018-12-12T05:00:14.044Z,41.50
2018-12-12T05:01:13.917Z,37.20
2018-12-12T05:02:13.922Z,42.80
2018-12-12T05:03:13.878Z,51.10
2018-12-12T05:04:13.794Z,54.50
2018-12-12T05:05:13.792Z,51.20
2018-12-12T05:06:13.676Z,42.90
2018-12-12T05:07:13.674Z,37.20
2018-12-12T05:08:13.552Z,43.20
2018-12-12T05:09:13.553Z,47.90
2018-12-12T05:10:13.554Z,38.10
2018-12-12T05:11:13.433Z,40.90
2018-12-12T05:12:13.462Z,37.00
2018-12-12T05:13:13.313Z,35.80
2018-12-12T05:14:13.320Z,36.50
2018-12-12T05:15:13.202Z,33.60
2018-12-12T05:16:13.197Z,37.70
2018-12-12T05:17:13.193Z,41.40
2018-12-12T05:18:13.080Z,37.50
2018-12-12T05:19:13.074Z,49.00
2018-12-12T05:20:12.953Z,44.60
2018-12-12T05:21:12.963Z,38.00
2018-12-12T05:22:12.962Z,51.60
2018-12-12T05:23:12.830Z,64.80
2018-12-12T05:24:12.834Z,36.10
2018-12-12T05:25:12.719Z,48.90
2018-12-12T05:26:12.715Z,50.70
2018-12-12T05:27:12.591Z,54.50
2018-12-12T05:28:12.587Z,47.30
2018-12-12T05:29:12.590Z,44.80
2018-12-12T05:30:12.470Z,45.40
2018-12-12T05:31:12.469Z,44.80
2018-12-12T05:32:12.352Z,48.40
2018-12-12T05:33:12.356Z,39.70
2018-12-12T05:34:12.349Z,39.70
2018-12-12T05:35:12.235Z,32.90
2018-12-12T05:36:12.240Z,35.10
2018-12-12T05:37:12.111Z,35.10
2018-12-12T05:38:12.107Z,36.10
2018-12-12T05:39:11.988Z,32.20
2018-12-12T05:40:11.986Z,37.20
2018-12-12T05:41:11.995Z,34.00
2018-12-12T05:42:11.866Z,37.80
2018-12-12T05:43:11.866Z,37.00
2018-12-12T05:44:11.745Z,34.30
2018-12-12T05:45:11.745Z,33.90
2018-12-12T05:46:11.747Z,42.50
2018-12-12T05:47:11.639Z,40.50
2018-12-12T05:48:11.633Z,42.70
2018-12-12T05:49:11.509Z,41.90
2018-12-12T05:50:11.505Z,40.00
2018-12-12T05:51:11.384Z,38.20
2018-12-12T05:52:11.391Z,40.20
2018-12-12T05:53:11.384Z,36.70
2018-12-12T05:54:11.270Z,40.60
2018-12-12T05:55:11.261Z,45.70
2018-12-12T05:56:14.128Z,46.40
2018-12-12T05:57:11.149Z,44.60
2018-12-12T05:58:11.031Z,44.70
2018-12-12T05:59:11.030Z,40.20
2018-12-12T06:00:11.022Z,48.20
2018-12-12T06:01:10.900Z,53.90
2018-12-12T06:02:10.909Z,42.10
2018-12-12T06:03:10.782Z,50.80
2018-12-12T06:04:10.786Z,45.80
2018-12-12T06:05:10.783Z,44.10
2018-12-12T06:06:10.664Z,46.60
2018-12-12T06:07:10.673Z,54.30
2018-12-12T06:08:10.541Z,49.20
2018-12-12T06:09:10.541Z,52.90
2018-12-12T06:10:10.425Z,48.90
2018-12-12T06:11:10.431Z,41.80
2018-12-12T06:12:10.420Z,45.30
2018-12-12T06:13:10.299Z,47.80
2018-12-12T06:14:10.298Z,45.70
2018-12-12T06:15:10.189Z,46.60
2018-12-12T06:16:10.184Z,48.90
2018-12-12T06:17:10.178Z,51.00
2018-12-12T06:18:10.063Z,46.80
2018-12-12T06:19:10.057Z,41.30
2018-12-12T06:20:09.939Z,43.40
2018-12-12T06:21:09.943Z,49.20
2018-12-12T06:22:09.817Z,56.60
2018-12-12T06:23:09.817Z,57.30
2018-12-12T06:24:09.819Z,57.20
2018-12-12T06:25:09.719Z,50.70
2018-12-12T06:26:09.695Z,54.90
2018-12-12T06:27:09.587Z,53.70
2018-12-12T06:28:09.581Z,48.00
2018-12-12T06:29:09.582Z,45.30
2018-12-12T06:30:09.457Z,44.20
2018-12-12T06:31:09.454Z,48.70
2018-12-12T06:32:09.334Z,47.00
2018-12-12T06:33:09.335Z,50.40
2018-12-12T06:34:09.212Z,47.40
2018-12-12T06:35:09.214Z,52.00
2018-12-12T06:36:09.213Z,45.50
2018-12-12T06:37:09.095Z,43.40
2018-12-12T06:38:09.099Z,44.70
2018-12-12T06:39:08.980Z,46.20
2018-12-12T06:40:08.974Z,44.90
2018-12-12T06:41:08.972Z,46.10
2018-12-12T06:42:08.852Z,41.80
2018-12-12T06:43:08.853Z,43.80
2018-12-12T06:44:08.736Z,49.70
2018-12-12T06:45:08.743Z,43.40
2018-12-12T06:46:08.625Z,44.90
2018-12-12T06:47:08.618Z,47.30
2018-12-12T06:48:08.611Z,41.70
2018-12-12T06:49:08.499Z,41.60
2018-12-12T06:50:08.492Z,46.00
2018-12-12T06:51:08.375Z,50.50
2018-12-12T06:52:08.370Z,61.90
2018-12-12T06:53:08.370Z,58.60
2018-12-12T06:54:08.249Z,57.20
2018-12-12T06:55:08.260Z,56.80
2018-12-12T06:56:08.129Z,57.20
2018-12-12T06:57:08.128Z,47.70
2018-12-12T06:58:08.009Z,54.70
2018-12-12T06:59:08.014Z,50.20
2018-12-12T07:00:08.010Z,56.90
2018-12-12T07:01:07.887Z,49.10
2018-12-12T07:02:07.887Z,60.00
2018-12-12T07:03:07.769Z,46.30
2018-12-12T07:04:07.771Z,51.00
2018-12-12T07:05:07.770Z,50.20
2018-12-12T07:06:07.650Z,46.40
2018-12-12T07:07:07.646Z,46.30
2018-12-12T07:08:07.526Z,51.10
2018-12-12T07:09:07.536Z,46.20
2018-12-12T07:10:07.408Z,48.60
2018-12-12T07:11:07.406Z,42.10
2018-12-12T07:12:07.405Z,51.40
2018-12-12T07:13:07.285Z,43.40
2018-12-12T07:14:07.294Z,54.60
2018-12-12T07:15:08.145Z,46.10
2018-12-12T07:16:07.166Z,51.60
2018-12-12T07:17:07.164Z,47.70
2018-12-12T07:18:07.044Z,56.90
2018-12-12T07:19:07.044Z,47.60
2018-12-12T07:20:06.926Z,56.30
2018-12-12T07:21:06.927Z,50.50
2018-12-12T07:22:06.923Z,52.50
2018-12-12T07:23:06.806Z,57.50
2018-12-12T07:24:06.805Z,57.30
2018-12-12T07:25:06.683Z,51.50
2018-12-12T07:26:06.687Z,53.00
2018-12-12T07:27:06.564Z,48.90
2018-12-12T07:28:06.563Z,57.00
2018-12-12T07:29:06.562Z,53.50
2018-12-12T07:30:06.441Z,47.00
2018-12-12T07:31:06.447Z,55.20
2018-12-12T07:32:06.398Z,55.00
2018-12-12T07:33:06.321Z,48.30
2018-12-12T07:34:06.321Z,46.60
2018-12-12T07:35:06.202Z,50.70
2018-12-12T07:36:06.209Z,49.40
2018-12-12T07:37:06.083Z,48.30
2018-12-12T07:38:06.083Z,48.50
2018-12-12T07:39:05.959Z,47.70
2018-12-12T07:40:05.958Z,50.10
2018-12-12T07:41:05.959Z,54.40
2018-12-12T07:42:05.845Z,51.00
2018-12-12T07:43:05.846Z,51.40
2018-12-12T07:44:05.720Z,53.30
2018-12-12T07:45:05.719Z,45.70
2018-12-12T07:46:05.720Z,46.40
2018-12-12T07:47:05.600Z,50.40
2018-12-12T07:48:05.601Z,47.90
2018-12-12T07:49:05.488Z,49.10
2018-12-12T07:50:05.487Z,46.60
2018-12-12T07:51:05.440Z,49.00
2018-12-12T07:52:05.368Z,48.40
2018-12-12T07:53:05.356Z,42.10
2018-12-12T07:54:05.245Z,49.90
2018-12-12T07:55:05.237Z,53.40
2018-12-12T07:56:05.119Z,57.10
2018-12-12T07:57:05.115Z,52.50
2018-12-12T07:58:05.116Z,61.70
2018-12-12T07:59:04.997Z,49.40
2018-12-12T08:00:04.995Z,53.80
2018-12-12T08:01:04.882Z,52.10
2018-12-12T08:02:04.874Z,53.50
2018-12-12T08:03:06.557Z,57.00
2018-12-12T08:04:04.754Z,47.90
2018-12-12T08:05:04.756Z,49.20
2018-12-12T08:06:04.736Z,50.40
2018-12-12T08:07:04.641Z,45.40
2018-12-12T08:08:04.522Z,54.30
2018-12-12T08:09:04.523Z,48.90
2018-12-12T08:10:04.521Z,50.70
2018-12-12T08:11:04.412Z,50.50
2018-12-12T08:12:04.395Z,51.30
2018-12-12T08:13:04.281Z,48.00
2018-12-12T08:14:04.284Z,50.80
2018-12-12T08:15:04.273Z,52.60
2018-12-12T08:16:04.152Z,48.70
2018-12-12T08:17:04.154Z,54.70
2018-12-12T08:18:04.036Z,47.90
2018-12-12T08:19:04.038Z,47.40
2018-12-12T08:20:04.045Z,53.10
2018-12-12T08:21:03.911Z,54.70
2018-12-12T08:22:03.910Z,49.60
2018-12-12T08:23:03.805Z,50.70
2018-12-12T08:24:03.792Z,57.40
2018-12-12T08:25:03.669Z,49.30
2018-12-12T08:26:03.672Z,49.10
2018-12-12T08:27:03.668Z,55.30
2018-12-12T08:28:03.557Z,48.50
2018-12-12T08:29:03.554Z,46.50
2018-12-12T08:30:03.435Z,52.10
2018-12-12T08:31:03.435Z,49.60
2018-12-12T08:32:03.435Z,47.40
2018-12-12T08:33:03.309Z,52.90
2018-12-12T08:34:03.306Z,47.50
2018-12-12T08:35:03.190Z,48.90
2018-12-12T08:36:03.188Z,54.30
2018-12-12T08:37:03.184Z,54.10
2018-12-12T08:38:03.066Z,47.70
2018-12-12T08:39:03.070Z,55.90
2018-12-12T08:40:02.955Z,56.10
2018-12-12T08:41:02.966Z,50.50
2018-12-12T08:42:02.832Z,50.80
2018-12-12T08:43:02.831Z,47.70
2018-12-12T08:44:02.828Z,46.70
2018-12-12T08:45:02.705Z,53.40
2018-12-12T08:46:02.715Z,53.00
2018-12-12T08:47:02.591Z,50.40
2018-12-12T08:48:02.586Z,54.00
2018-12-12T08:49:02.586Z,50.00
2018-12-12T08:50:02.470Z,50.70
2018-12-12T08:51:02.465Z,48.60
2018-12-12T08:52:02.355Z,49.10
2018-12-12T08:53:02.346Z,44.90
2018-12-12T08:54:02.415Z,44.80
2018-12-12T08:55:02.224Z,41.20
2018-12-12T08:56:02.928Z,51.20
2018-12-12T08:57:02.104Z,46.60
2018-12-12T08:58:02.104Z,43.70
2018-12-12T08:59:01.981Z,48.90
2018-12-12T09:00:01.983Z,43.10
2018-12-12T09:01:01.982Z,44.30
2018-12-12T09:02:01.862Z,54.40
2018-12-12T09:03:01.860Z,49.70
2018-12-12T09:04:01.829Z,50.20
2018-12-12T09:05:01.873Z,43.30
2018-12-12T09:06:01.836Z,49.50
2018-12-12T09:07:01.750Z,47.30
2018-12-12T09:08:01.748Z,43.50
2018-12-12T09:09:01.509Z,50.90
2018-12-12T09:10:01.504Z,52.40
2018-12-12T09:11:01.466Z,47.30
2018-12-12T09:12:01.386Z,47.20
2018-12-12T09:13:01.381Z,42.70
2018-12-12T09:14:01.262Z,49.70
2018-12-12T09:15:01.259Z,47.10
2018-12-12T09:16:01.263Z,46.40
2018-12-12T09:17:01.142Z,45.70
2018-12-12T09:18:01.139Z,46.30
2018-12-12T09:19:01.018Z,44.60
2018-12-12T09:20:01.020Z,44.00
2018-12-12T09:21:00.909Z,46.70
2018-12-12T09:22:00.907Z,45.60
2018-12-12T09:23:00.896Z,45.10
2018-12-12T09:24:00.785Z,40.30
2018-12-12T09:25:00.777Z,41.50
2018-12-12T09:26:00.656Z,41.20
2018-12-12T09:27:00.663Z,38.90
2018-12-12T09:28:00.655Z,39.10
2018-12-12T09:29:00.538Z,36.60
2018-12-12T09:30:00.544Z,39.10
2018-12-12T09:31:00.426Z,37.40
2018-12-12T09:32:00.418Z,37.10
2018-12-12T09:33:00.415Z,35.80
2018-12-12T09:34:00.297Z,35.60
2018-12-12T09:35:00.294Z,36.50
2018-12-12T09:36:00.180Z,38.80
2018-12-12T09:37:00.181Z,35.80
2018-12-12T09:38:00.057Z,34.30
2018-12-12T09:39:00.062Z,40.40
2018-12-12T09:40:00.056Z,34.80
2018-12-12T09:40:59.933Z,33.60
2018-12-12T09:41:59.941Z,34.00
2018-12-12T09:42:59.817Z,38.10
2018-12-12T09:43:59.812Z,36.20
2018-12-12T09:44:59.812Z,35.00
2018-12-12T09:45:59.702Z,33.20
2018-12-12T09:46:59.692Z,36.70
2018-12-12T09:47:59.580Z,32.40
2018-12-12T09:48:59.573Z,33.30
2018-12-12T09:49:59.570Z,34.20
2018-12-12T09:51:06.889Z,33.60
2018-12-12T09:51:59.451Z,34.90
2018-12-12T09:52:59.380Z,35.00
2018-12-12T09:53:59.330Z,27.60
2018-12-12T09:54:59.295Z,33.30
2018-12-12T09:55:59.212Z,29.70
2018-12-12T09:56:59.210Z,30.30
2018-12-12T09:57:59.090Z,32.30
2018-12-12T09:58:59.091Z,27.40
2018-12-12T09:59:58.969Z,28.90
2018-12-12T10:00:58.968Z,28.90
2018-12-12T10:01:58.969Z,27.80
2018-12-12T10:02:58.855Z,29.90
2018-12-12T10:03:58.848Z,22.70
2018-12-12T10:04:58.734Z,30.60
2018-12-12T10:05:58.730Z,26.80
2018-12-12T10:06:58.733Z,27.90
2018-12-12T10:07:58.615Z,28.20
2018-12-12T10:08:58.608Z,26.70
2018-12-12T10:09:58.490Z,27.30
2018-12-12T10:10:58.489Z,28.60
2018-12-12T10:11:58.488Z,30.20
2018-12-12T10:12:58.367Z,23.70
2018-12-12T10:13:58.366Z,25.20
2018-12-12T10:14:58.246Z,30.70
2018-12-12T10:15:58.255Z,27.70
2018-12-12T10:16:58.260Z,29.30
2018-12-12T10:17:58.129Z,28.40
2018-12-12T10:18:58.130Z,27.90
2018-12-12T10:19:58.004Z,29.40
2018-12-12T10:20:58.010Z,27.30
2018-12-12T10:21:58.004Z,26.00
2018-12-12T10:22:57.885Z,27.70
2018-12-12T10:23:57.885Z,27.10
2018-12-12T10:24:57.765Z,27.90
2018-12-12T10:25:57.763Z,24.10
2018-12-12T10:26:57.726Z,25.90
2018-12-12T10:27:57.644Z,25.80
2018-12-12T10:28:57.649Z,28.90
2018-12-12T10:29:57.522Z,25.80
2018-12-12T10:30:57.521Z,23.60
2018-12-12T10:31:57.411Z,29.90
2018-12-12T10:32:57.400Z,25.80
2018-12-12T10:33:57.401Z,22.50
2018-12-12T10:34:57.288Z,25.90
2018-12-12T10:35:57.281Z,24.80
2018-12-12T10:36:57.169Z,22.90
2018-12-12T10:37:57.159Z,27.40
2018-12-12T10:38:57.166Z,23.00
2018-12-12T10:39:57.048Z,22.00
2018-12-12T10:40:57.106Z,28.50
2018-12-12T10:41:56.920Z,21.90
2018-12-12T10:42:56.928Z,23.90
2018-12-12T10:43:56.920Z,24.50
2018-12-12T10:44:56.800Z,22.80
2018-12-12T10:45:56.802Z,21.90
2018-12-12T10:46:56.678Z,22.40
2018-12-12T10:47:56.676Z,23.40
2018-12-12T10:48:56.679Z,24.00
2018-12-12T10:49:56.558Z,24.30
2018-12-12T10:50:56.560Z,22.60
2018-12-12T10:51:56.439Z,24.00
2018-12-12T10:52:56.444Z,24.30
2018-12-12T10:53:56.439Z,22.40
2018-12-12T10:54:56.322Z,23.10
2018-12-12T10:55:56.318Z,19.90
2018-12-12T10:56:56.197Z,24.70
2018-12-12T10:57:56.204Z,21.60
2018-12-12T10:58:56.198Z,27.30
2018-12-12T10:59:56.076Z,22.30
2018-12-12T11:00:56.074Z,26.20
2018-12-12T11:01:55.962Z,22.10
2018-12-12T11:02:55.956Z,21.10
2018-12-12T11:03:55.955Z,23.90
2018-12-12T11:04:55.840Z,22.80
2018-12-12T11:05:55.835Z,21.40
2018-12-12T11:06:55.721Z,22.40
2018-12-12T11:07:55.714Z,21.40
2018-12-12T11:08:55.713Z,21.40
2018-12-12T11:09:55.599Z,24.00
2018-12-12T11:10:55.594Z,22.50
2018-12-12T11:11:55.474Z,19.50
2018-12-12T11:12:55.477Z,23.40
2018-12-12T11:13:55.476Z,22.70
2018-12-12T11:14:55.355Z,23.00
2018-12-12T11:15:55.356Z,20.30
2018-12-12T11:16:55.243Z,20.50
2018-12-12T11:17:55.239Z,20.80
2018-12-12T11:18:55.197Z,21.20
2018-12-12T11:19:55.112Z,24.20
2018-12-12T11:20:55.115Z,25.70
2018-12-12T11:21:54.992Z,23.90
2018-12-12T11:22:54.997Z,27.70
2018-12-12T11:23:54.871Z,23.20
2018-12-12T11:24:54.870Z,22.30
2018-12-12T11:25:54.877Z,21.20
2018-12-12T11:26:54.758Z,22.30
2018-12-12T11:27:54.751Z,21.70
2018-12-12T11:28:54.638Z,24.40
2018-12-12T11:29:54.638Z,18.60
2018-12-12T11:30:54.630Z,24.00
2018-12-12T11:31:54.515Z,25.20
2018-12-12T11:32:54.518Z,21.90
2018-12-12T11:33:54.389Z,22.10
2018-12-12T11:34:54.398Z,24.70
2018-12-12T11:35:54.392Z,23.80
2018-12-12T11:36:54.275Z,25.50
2018-12-12T11:37:54.282Z,21.70
2018-12-12T11:38:54.154Z,22.20
2018-12-12T11:39:54.147Z,25.10
2018-12-12T11:40:54.155Z,25.20
2018-12-12T11:41:54.041Z,28.00
2018-12-12T11:42:54.030Z,26.10
2018-12-12T11:43:53.918Z,23.70
2018-12-12T11:44:53.914Z,22.30
2018-12-12T11:45:53.908Z,24.80
2018-12-12T11:46:53.791Z,25.00
2018-12-12T11:47:53.793Z,22.60
2018-12-12T11:48:53.678Z,19.30
2018-12-12T11:49:53.667Z,24.50
2018-12-12T11:50:53.674Z,22.00
2018-12-12T11:51:53.548Z,25.00
2018-12-12T11:52:53.545Z,23.30
2018-12-12T11:53:53.424Z,19.50
2018-12-12T11:54:53.425Z,20.10
2018-12-12T11:55:53.424Z,19.20
2018-12-12T11:56:53.317Z,21.40
2018-12-12T11:57:53.305Z,20.60
2018-12-12T11:58:53.183Z,20.70
2018-12-12T11:59:53.183Z,21.10
2018-12-12T12:00:53.187Z,20.10
2018-12-12T12:01:53.064Z,22.30
2018-12-12T12:02:53.069Z,22.30
2018-12-12T12:03:56.781Z,22.60
2018-12-12T12:04:52.948Z,26.00
2018-12-12T12:05:52.941Z,23.50
2018-12-12T12:06:52.838Z,22.90
2018-12-12T12:07:52.823Z,25.00
2018-12-12T12:08:52.703Z,32.60
2018-12-12T12:09:52.703Z,24.40
2018-12-12T12:10:52.703Z,23.60
2018-12-12T12:11:52.588Z,26.00
2018-12-12T12:12:52.589Z,22.50
2018-12-12T12:13:52.467Z,23.90
2018-12-12T12:14:52.460Z,24.40
2018-12-12T12:15:52.459Z,25.00
2018-12-12T12:16:52.346Z,23.60
2018-12-12T12:17:52.346Z,23.10
2018-12-12T12:18:52.225Z,23.20
2018-12-12T12:19:52.225Z,21.60
2018-12-12T12:20:52.220Z,24.60
2018-12-12T12:21:52.102Z,23.70
2018-12-12T12:22:52.103Z,23.60
2018-12-12T12:23:51.977Z,23.40
2018-12-12T12:24:51.978Z,22.40
2018-12-12T12:25:51.978Z,24.50
2018-12-12T12:26:51.857Z,22.50
2018-12-12T12:27:51.856Z,23.10
2018-12-12T12:28:51.736Z,22.50
2018-12-12T12:29:51.737Z,21.50
2018-12-12T12:30:51.699Z,21.50
2018-12-12T12:31:51.616Z,18.50
2018-12-12T12:32:51.623Z,22.20
2018-12-12T12:33:51.495Z,22.40
2018-12-12T12:34:51.495Z,23.50
2018-12-12T12:35:51.458Z,20.20
2018-12-12T12:36:51.377Z,20.80
2018-12-12T12:37:51.382Z,18.90
2018-12-12T12:38:51.264Z,19.40
2018-12-12T12:39:51.257Z,17.60
2018-12-12T12:40:51.250Z,21.80
2018-12-12T12:41:51.133Z,20.60
2018-12-12T12:42:51.139Z,21.30
2018-12-12T12:43:51.026Z,20.10
2018-12-12T12:44:51.021Z,19.30
2018-12-12T12:45:50.894Z,20.60
2018-12-12T12:46:50.903Z,21.10
2018-12-12T12:47:50.895Z,21.00
2018-12-12T12:48:50.781Z,22.40
2018-12-12T12:49:50.773Z,19.30
2018-12-12T12:50:50.658Z,23.00
2018-12-12T12:51:50.661Z,22.40